createdAt,value
2019-02-20T00:00:45.675Z,7.98
2019-02-20T00:02:47.052Z,8.01
2019-02-20T00:04:48.475Z,8.05
2019-02-20T00:06:49.946Z,8.09
2019-02-20T00:09:06.674Z,8.08
2019-02-20T00:11:08.038Z,8.06
2019-02-20T00:13:25.647Z,8.08
2019-02-20T00:15:29.323Z,8.08
2019-02-20T00:17:30.727Z,8.13
2019-02-20T00:19:32.128Z,8.12
2019-02-20T00:21:33.529Z,8.08
2019-02-20T00:23:34.899Z,8.12
2019-02-20T00:25:36.267Z,8.13
2019-02-20T00:27:37.746Z,8.13
2019-02-20T00:29:39.263Z,8.05
2019-02-20T00:31:40.709Z,8.13
2019-02-20T00:33:42.117Z,8.14
2019-02-20T00:35:53.364Z,8.08
2019-02-20T00:38:01.021Z,8.05
2019-02-20T00:40:11.223Z,8.03
2019-02-20T00:42:12.652Z,8.06
2019-02-20T00:44:19.017Z,8.04
2019-02-20T00:46:22.361Z,8.02
2019-02-20T00:48:34.426Z,7.99
2019-02-20T00:50:50.133Z,8.01
2019-02-20T00:53:02.439Z,7.98
2019-02-20T00:55:06.952Z,8.00
2019-02-20T00:57:08.366Z,8.02
2019-02-20T00:59:09.789Z,7.98
2019-02-20T01:01:11.554Z,8.03
2019-02-20T01:03:12.903Z,8.03
2019-02-20T01:05:14.382Z,7.98
2019-02-20T01:07:15.831Z,7.98
2019-02-20T01:09:17.367Z,7.99
2019-02-20T01:11:19.340Z,7.93
2019-02-20T01:13:20.970Z,7.97
2019-02-20T01:15:22.339Z,7.97
2019-02-20T01:17:23.988Z,7.98
2019-02-20T01:19:25.437Z,8.01
2019-02-20T01:21:26.855Z,8.01
2019-02-20T01:23:28.224Z,8.04
2019-02-20T01:25:29.691Z,8.04
2019-02-20T01:27:33.114Z,8.03
2019-02-20T01:29:34.509Z,8.08
2019-02-20T01:31:35.883Z,8.08
2019-02-20T01:33:37.318Z,8.07
2019-02-20T01:35:39.821Z,8.08
2019-02-20T01:37:41.187Z,8.08
2019-02-20T01:39:42.587Z,8.07
2019-02-20T01:41:43.962Z,8.08
2019-02-20T01:43:45.438Z,8.10
2019-02-20T01:45:46.829Z,8.15
2019-02-20T01:47:48.799Z,8.11
2019-02-20T01:49:50.248Z,8.17
2019-02-20T01:51:51.626Z,8.21
2019-02-20T01:53:53.019Z,8.20
2019-02-20T01:55:54.419Z,8.21
2019-02-20T01:57:55.832Z,8.23
2019-02-20T01:59:57.230Z,8.27
2019-02-20T02:01:58.632Z,8.31
2019-02-20T02:04:00.032Z,8.26
2019-02-20T02:06:02.441Z,8.29
2019-02-20T02:08:03.940Z,8.31
2019-02-20T02:10:07.026Z,8.35
2019-02-20T02:12:08.790Z,8.38
2019-02-20T02:14:10.146Z,8.35
2019-02-20T02:16:11.528Z,8.36
2019-02-20T02:18:12.941Z,8.41
2019-02-20T02:20:23.465Z,8.43
2019-02-20T02:22:24.844Z,8.42
2019-02-20T02:24:26.209Z,8.41
2019-02-20T02:26:27.630Z,8.41
2019-02-20T02:28:29.072Z,8.38
2019-02-20T02:30:30.422Z,8.44
2019-02-20T02:32:31.818Z,8.45
2019-02-20T02:34:33.199Z,8.45
2019-02-20T02:36:34.614Z,8.46
2019-02-20T02:38:36.032Z,8.53
2019-02-20T02:40:37.511Z,8.50
2019-02-20T02:42:38.913Z,8.50
2019-02-20T02:44:40.323Z,8.52
2019-02-20T02:46:42.765Z,8.62
2019-02-20T02:48:44.160Z,8.57
2019-02-20T02:50:45.555Z,8.56
2019-02-20T02:52:46.957Z,8.56
2019-02-20T02:54:48.312Z,8.58
2019-02-20T02:56:49.742Z,8.57
2019-02-20T02:58:51.117Z,8.63
2019-02-20T03:00:54.260Z,8.61
2019-02-20T03:03:01.007Z,8.63
2019-02-20T03:05:06.927Z,8.64
2019-02-20T03:07:08.816Z,8.63
2019-02-20T03:09:18.380Z,8.64
2019-02-20T03:11:29.249Z,8.65
2019-02-20T03:13:39.603Z,8.64
2019-02-20T03:15:42.969Z,8.66
2019-02-20T03:17:46.406Z,8.62
2019-02-20T03:19:47.792Z,8.63
2019-02-20T03:21:49.159Z,8.62
2019-02-20T03:23:51.061Z,8.57
2019-02-20T03:25:53.513Z,8.54
2019-02-20T03:27:54.888Z,8.48
2019-02-20T03:29:56.512Z,8.41
2019-02-20T03:31:59.909Z,8.41
2019-02-20T03:34:01.284Z,8.36
2019-02-20T03:36:02.684Z,8.34
2019-02-20T03:38:05.206Z,8.36
2019-02-20T03:40:07.732Z,8.32
2019-02-20T03:42:09.215Z,8.35
2019-02-20T03:44:13.931Z,8.32
2019-02-20T03:46:15.337Z,8.30
2019-02-20T03:48:16.785Z,8.30
2019-02-20T03:50:18.187Z,8.28
2019-02-20T03:52:20.616Z,8.24
2019-02-20T03:54:22.078Z,8.27
2019-02-20T03:56:23.460Z,8.24
2019-02-20T03:58:25.874Z,8.25
2019-02-20T04:00:27.254Z,8.27
2019-02-20T04:02:28.652Z,8.20
2019-02-20T04:04:30.130Z,8.18
2019-02-20T04:06:31.512Z,8.15
2019-02-20T04:08:32.940Z,8.10
2019-02-20T04:10:41.113Z,8.06
2019-02-20T04:12:42.716Z,8.04
2019-02-20T04:14:44.070Z,7.99
2019-02-20T04:16:46.495Z,7.97
2019-02-20T04:18:51.040Z,7.93
2019-02-20T04:21:06.613Z,7.88
2019-02-20T04:23:10.000Z,7.87
2019-02-20T04:25:13.361Z,7.82
2019-02-20T04:27:14.776Z,7.77
2019-02-20T04:29:16.134Z,7.75
2019-02-20T04:31:17.501Z,7.73
2019-02-20T04:33:18.917Z,7.66
2019-02-20T04:35:20.273Z,7.62
2019-02-20T04:37:21.658Z,7.57
2019-02-20T04:39:23.279Z,7.56
2019-02-20T04:41:24.658Z,7.51
2019-02-20T04:43:26.012Z,7.48
2019-02-20T04:45:27.432Z,7.50
2019-02-20T04:47:28.827Z,7.46
2019-02-20T04:49:30.216Z,7.39
2019-02-20T04:51:31.620Z,7.37
2019-02-20T04:53:33.002Z,7.41
2019-02-20T04:55:34.698Z,7.38
2019-02-20T04:57:36.122Z,7.36
2019-02-20T04:59:37.587Z,7.33
2019-02-20T05:01:38.958Z,7.29
2019-02-20T05:03:40.354Z,7.31
2019-02-20T05:05:41.729Z,7.30
2019-02-20T05:07:43.126Z,7.25
2019-02-20T05:09:45.744Z,7.33
2019-02-20T05:11:47.192Z,7.32
2019-02-20T05:13:48.568Z,7.31
2019-02-20T05:15:49.980Z,7.31
2019-02-20T05:17:51.384Z,7.32
2019-02-20T05:19:52.862Z,7.32
2019-02-20T05:21:54.257Z,7.33
2019-02-20T05:23:55.608Z,7.35
2019-02-20T05:25:57.023Z,7.39
2019-02-20T05:27:58.380Z,7.33
2019-02-20T05:29:59.786Z,7.35
2019-02-20T05:32:01.157Z,7.37
2019-02-20T05:34:02.564Z,7.41
2019-02-20T05:36:03.944Z,7.42
2019-02-20T05:38:05.306Z,7.43
2019-02-20T05:40:08.836Z,7.47
2019-02-20T05:42:10.200Z,7.45
2019-02-20T05:44:11.579Z,7.55
2019-02-20T05:46:13.008Z,7.49
2019-02-20T05:48:14.370Z,7.50
2019-02-20T05:50:15.728Z,7.54
2019-02-20T05:52:17.194Z,7.53
2019-02-20T05:54:18.549Z,7.51
2019-02-20T05:56:19.944Z,7.48
2019-02-20T05:58:21.458Z,7.44
2019-02-20T06:00:23.126Z,7.45
2019-02-20T06:02:24.457Z,7.47
2019-02-20T06:04:25.853Z,7.47
2019-02-20T06:06:27.255Z,7.53
2019-02-20T06:08:28.630Z,7.52
2019-02-20T06:10:30.042Z,7.54
2019-02-20T06:12:31.396Z,7.59
2019-02-20T06:14:32.798Z,7.57
2019-02-20T06:16:34.194Z,7.55
2019-02-20T06:18:35.517Z,7.58
2019-02-20T06:20:36.921Z,7.61
2019-02-20T06:22:38.502Z,7.61
2019-02-20T06:24:44.162Z,7.62
2019-02-20T06:26:43.143Z,7.69
2019-02-20T06:28:44.548Z,7.69
2019-02-20T06:30:45.967Z,7.70
2019-02-20T06:32:47.372Z,7.68
2019-02-20T06:34:48.781Z,7.69
2019-02-20T06:36:50.101Z,7.75
2019-02-20T06:38:51.527Z,7.74
2019-02-20T06:40:53.204Z,7.76
2019-02-20T06:42:54.566Z,7.78
2019-02-20T06:44:55.937Z,7.82
2019-02-20T06:46:57.326Z,7.79
2019-02-20T06:48:58.719Z,7.78
2019-02-20T06:51:00.071Z,7.80
2019-02-20T06:53:01.462Z,7.81
2019-02-20T06:55:07.676Z,7.78
2019-02-20T06:57:09.001Z,7.84
2019-02-20T06:59:10.403Z,7.80
2019-02-20T07:01:11.775Z,7.78
2019-02-20T07:03:13.182Z,7.82
2019-02-20T07:05:36.101Z,7.83
2019-02-20T07:07:52.127Z,7.79
2019-02-20T07:10:21.827Z,7.75
2019-02-20T07:12:31.721Z,7.75
2019-02-20T07:14:44.278Z,7.78
2019-02-20T07:17:16.939Z,7.78
2019-02-20T07:20:00.045Z,7.74
2019-02-20T07:22:43.095Z,7.78
2019-02-20T07:25:44.168Z,7.50
2019-02-20T07:28:45.476Z,7.41
2019-02-20T07:31:06.735Z,7.37
2019-02-20T07:33:28.020Z,7.73
2019-02-20T07:35:49.396Z,7.74
2019-02-20T07:38:10.912Z,7.73
2019-02-20T07:40:32.210Z,7.52
2019-02-20T07:42:53.437Z,7.79
2019-02-20T07:45:14.715Z,7.76
2019-02-20T07:47:35.989Z,7.75
2019-02-20T07:49:57.289Z,7.49
2019-02-20T07:52:18.596Z,7.75
2019-02-20T07:54:39.857Z,7.80
2019-02-20T07:56:41.239Z,7.82
2019-02-20T07:59:02.560Z,7.59
2019-02-20T08:01:23.851Z,7.89
2019-02-20T08:03:45.107Z,7.92
2019-02-20T08:06:06.397Z,7.78
2019-02-20T08:08:27.688Z,8.08
2019-02-20T08:10:48.910Z,8.10
2019-02-20T08:12:50.382Z,8.18
2019-02-20T08:15:11.644Z,7.94
2019-02-20T08:17:32.895Z,8.19
2019-02-20T08:19:54.199Z,8.24
2019-02-20T08:22:15.466Z,8.29
2019-02-20T08:24:36.758Z,8.07
2019-02-20T08:26:51.995Z,8.42
2019-02-20T08:29:13.299Z,8.20
2019-02-20T08:31:34.656Z,8.54
2019-02-20T08:33:55.886Z,8.57
2019-02-20T08:36:17.184Z,8.52
2019-02-20T08:38:38.522Z,8.33
2019-02-20T08:40:59.868Z,8.56
2019-02-20T08:43:21.162Z,8.27
2019-02-20T08:45:42.513Z,8.17
2019-02-20T08:48:03.785Z,8.41
2019-02-20T08:50:25.090Z,8.42
2019-02-20T08:52:40.416Z,8.40
2019-02-20T08:54:55.483Z,8.11
2019-02-20T08:57:16.734Z,8.22
2019-02-20T08:59:37.992Z,8.43
2019-02-20T09:01:59.306Z,8.49
2019-02-20T09:04:20.548Z,8.47
2019-02-20T09:06:41.876Z,8.23
2019-02-20T09:11:36.731Z,8.37
2019-02-20T09:13:58.045Z,8.73
2019-02-20T09:16:19.296Z,8.76
2019-02-20T09:18:40.563Z,8.48
2019-02-20T09:21:01.967Z,8.76
2019-02-20T09:23:23.251Z,8.76
2019-02-20T09:25:44.742Z,8.54
2019-02-20T09:28:05.998Z,8.57
2019-02-20T09:30:28.820Z,8.83
2019-02-20T09:33:10.359Z,8.94
2019-02-20T09:35:31.618Z,8.94
2019-02-20T09:37:52.871Z,8.66
2019-02-20T09:43:23.450Z,9.01
2019-02-20T09:45:44.713Z,8.83
2019-02-20T09:48:05.987Z,9.12
2019-02-20T09:50:27.288Z,8.91
2019-02-20T09:52:41.973Z,9.20
2019-02-20T09:58:07.267Z,9.06
2019-02-20T10:00:28.511Z,9.43
2019-02-20T10:02:49.780Z,9.07
2019-02-20T10:05:11.161Z,9.42
2019-02-20T10:07:12.542Z,9.38
2019-02-20T10:09:33.794Z,9.50
2019-02-20T10:11:55.089Z,9.54
2019-02-20T10:14:16.352Z,9.32
2019-02-20T10:16:37.623Z,9.40
2019-02-20T10:18:59.113Z,9.62
2019-02-20T10:21:20.374Z,9.43
2019-02-20T10:23:41.637Z,9.92
2019-02-20T10:26:02.941Z,9.63
2019-02-20T10:28:24.287Z,10.00
2019-02-20T10:30:45.551Z,9.71
2019-02-20T10:33:06.846Z,10.05
2019-02-20T10:35:28.099Z,10.21
2019-02-20T10:37:49.369Z,10.22
2019-02-20T10:40:10.724Z,10.07
2019-02-20T10:42:31.985Z,9.93
2019-02-20T10:44:53.273Z,10.19
2019-02-20T10:47:14.547Z,9.91
2019-02-20T10:49:35.850Z,10.32
2019-02-20T10:51:50.438Z,10.55
2019-02-20T10:54:11.994Z,10.48
2019-02-20T10:56:33.852Z,10.62
2019-02-20T10:58:56.994Z,10.24
2019-02-20T11:01:18.541Z,10.36
2019-02-20T11:03:40.114Z,10.68
2019-02-20T11:06:01.781Z,10.69
2019-02-20T11:08:23.342Z,10.72
2019-02-20T11:10:44.933Z,10.58
2019-02-20T11:13:06.491Z,11.02
2019-02-20T11:15:29.676Z,10.77
2019-02-20T11:17:52.849Z,10.89
2019-02-20T11:20:14.645Z,10.64
2019-02-20T11:22:36.203Z,10.89
2019-02-20T11:24:57.759Z,10.92
2019-02-20T11:27:19.545Z,10.61
2019-02-20T11:29:42.841Z,10.98
2019-02-20T11:32:04.599Z,10.85
2019-02-20T11:34:26.179Z,11.06
2019-02-20T11:36:49.318Z,11.08
2019-02-20T11:39:37.440Z,11.16
2019-02-20T11:42:14.269Z,10.75
2019-02-20T11:44:35.833Z,11.01
2019-02-20T11:46:59.045Z,11.38
2019-02-20T11:49:20.647Z,11.07
2019-02-20T11:51:43.818Z,11.35
2019-02-20T11:54:00.067Z,11.47
2019-02-20T11:56:26.526Z,11.39
2019-02-20T11:59:04.717Z,11.16
2019-02-20T12:01:27.911Z,10.73
2019-02-20T12:03:51.080Z,10.80
2019-02-20T12:08:03.026Z,11.26
2019-02-20T12:10:24.283Z,11.27
2019-02-20T12:12:45.588Z,11.48
2019-02-20T12:15:07.596Z,11.60
2019-02-20T12:17:28.873Z,11.39
2019-02-20T12:19:50.119Z,11.30
2019-02-20T12:22:11.359Z,11.52
2019-02-20T12:24:32.952Z,11.70
2019-02-20T12:26:54.324Z,11.66
2019-02-20T12:29:15.627Z,12.06
2019-02-20T12:31:56.878Z,11.70
2019-02-20T12:34:18.157Z,12.08
2019-02-20T12:36:39.413Z,12.18
2019-02-20T12:39:00.702Z,11.55
2019-02-20T12:41:21.991Z,11.61
2019-02-20T12:43:43.243Z,11.89
2019-02-20T12:46:04.501Z,11.81
2019-02-20T12:48:25.786Z,11.58
2019-02-20T12:50:47.057Z,11.79
2019-02-20T12:53:08.347Z,11.55
2019-02-20T12:55:23.098Z,11.79
2019-02-20T12:57:44.396Z,11.46
2019-02-20T13:00:27.531Z,11.73
2019-02-20T13:02:48.826Z,11.47
2019-02-20T13:05:10.095Z,11.77
2019-02-20T13:07:33.166Z,11.85
2019-02-20T13:10:14.659Z,11.59
2019-02-20T13:12:35.922Z,11.60
2019-02-20T13:14:57.190Z,11.67
2019-02-20T13:17:18.489Z,12.13
2019-02-20T13:19:39.759Z,12.10
2019-02-20T13:21:41.124Z,12.04
2019-02-20T13:24:02.540Z,12.13
2019-02-20T13:26:23.803Z,12.26
2019-02-20T13:28:45.076Z,12.63
2019-02-20T13:31:06.363Z,12.18
2019-02-20T13:33:27.632Z,12.22
2019-02-20T13:35:48.920Z,12.52
2019-02-20T13:38:10.194Z,12.63
2019-02-20T13:40:31.472Z,12.60
2019-02-20T13:42:52.854Z,12.25
2019-02-20T13:45:14.164Z,12.47
2019-02-20T13:47:28.933Z,12.53
2019-02-20T13:49:50.195Z,12.55
2019-02-20T13:52:11.484Z,12.36
2019-02-20T13:54:32.771Z,12.46
2019-02-20T13:57:01.625Z,12.28
2019-02-20T13:59:37.094Z,12.23
2019-02-20T14:01:58.592Z,12.31
2019-02-20T14:04:19.915Z,12.42
2019-02-20T14:06:41.227Z,12.56
2019-02-20T14:08:42.714Z,12.54
2019-02-20T14:11:04.258Z,12.41
2019-02-20T14:13:25.565Z,11.99
2019-02-20T14:15:46.831Z,12.11
2019-02-20T14:18:08.089Z,12.09
2019-02-20T14:20:29.385Z,11.83
2019-02-20T14:22:50.661Z,12.08
2019-02-20T14:24:52.045Z,12.03
2019-02-20T14:27:13.429Z,12.10
2019-02-20T14:29:34.688Z,12.11
2019-02-20T14:31:56.173Z,12.06
2019-02-20T14:34:17.547Z,12.10
2019-02-20T14:36:38.911Z,12.04
2019-02-20T14:39:00.213Z,12.00
2019-02-20T14:41:21.557Z,11.88
2019-02-20T14:43:42.809Z,11.63
2019-02-20T14:45:57.370Z,11.89
2019-02-20T14:48:12.257Z,11.57
2019-02-20T14:50:33.638Z,11.77
2019-02-20T14:52:54.942Z,11.82
2019-02-20T14:55:16.307Z,11.47
2019-02-20T14:57:37.704Z,11.70
2019-02-20T14:59:59.018Z,11.65
2019-02-20T15:02:20.440Z,11.70
2019-02-20T15:04:41.779Z,11.63
2019-02-20T15:07:03.071Z,11.56
2019-02-20T15:09:24.349Z,11.56
2019-02-20T15:11:45.589Z,11.54
2019-02-20T15:14:06.897Z,11.51
2019-02-20T15:16:28.253Z,11.31
2019-02-20T15:18:49.507Z,11.57
2019-02-20T15:21:10.810Z,11.33
2019-02-20T15:23:32.062Z,11.28
2019-02-20T15:25:53.777Z,11.53
2019-02-20T15:28:15.346Z,11.32
2019-02-20T15:30:36.598Z,11.30
2019-02-20T15:32:57.891Z,11.53
2019-02-20T15:35:19.474Z,11.52
2019-02-20T15:37:40.790Z,11.51
2019-02-20T15:40:02.887Z,11.16
2019-02-20T15:42:24.360Z,11.16
2019-02-20T15:44:45.624Z,11.42
2019-02-20T15:47:06.916Z,11.36
2019-02-20T15:49:21.817Z,11.40
2019-02-20T15:51:43.078Z,11.16
2019-02-20T15:54:04.483Z,11.09
2019-02-20T15:56:25.752Z,11.36
2019-02-20T15:58:47.251Z,11.24
2019-02-20T16:01:08.602Z,11.39
2019-02-20T16:03:29.965Z,11.03
2019-02-20T16:05:51.274Z,11.28
2019-02-20T16:08:12.524Z,11.26
2019-02-20T16:10:34.845Z,10.95
2019-02-20T16:13:16.882Z,11.24
2019-02-20T16:15:38.198Z,10.98
2019-02-20T16:17:59.492Z,10.99
2019-02-20T16:20:20.856Z,11.23
2019-02-20T16:22:42.126Z,11.00
2019-02-20T16:25:25.488Z,10.97
2019-02-20T16:27:47.762Z,11.17
2019-02-20T16:30:29.848Z,11.19
2019-02-20T16:32:51.361Z,11.15
2019-02-20T16:35:12.694Z,10.94
2019-02-20T16:37:33.962Z,10.83
2019-02-20T16:39:55.367Z,11.12
2019-02-20T16:42:16.634Z,10.95
2019-02-20T16:44:37.866Z,10.93
2019-02-20T16:46:59.167Z,11.13
2019-02-20T16:49:14.427Z,11.17
2019-02-20T16:51:35.687Z,10.87
2019-02-20T16:53:56.983Z,11.03
2019-02-20T16:55:58.376Z,11.11
2019-02-20T16:58:19.631Z,11.10
2019-02-20T17:00:41.020Z,11.16
2019-02-20T17:03:02.297Z,11.11
2019-02-20T17:05:23.786Z,11.00
2019-02-20T17:07:45.152Z,10.61
2019-02-20T17:10:28.327Z,10.85
2019-02-20T17:12:49.627Z,10.58
2019-02-20T17:15:33.609Z,10.58
2019-02-20T17:17:54.878Z,10.44
2019-02-20T17:20:38.689Z,10.62
2019-02-20T17:23:00.045Z,10.55
2019-02-20T17:25:21.605Z,10.64
2019-02-20T17:27:42.914Z,10.58
2019-02-20T17:30:26.086Z,10.40
2019-02-20T17:32:47.750Z,10.22
2019-02-20T17:35:09.518Z,10.15
2019-02-20T17:37:30.842Z,10.15
2019-02-20T17:39:52.190Z,10.35
2019-02-20T17:42:13.569Z,10.33
2019-02-20T17:44:34.833Z,10.18
2019-02-20T17:46:56.124Z,10.32
2019-02-20T17:49:17.577Z,10.26
2019-02-20T17:51:38.853Z,10.07
2019-02-20T17:54:02.105Z,9.91
2019-02-20T17:56:23.383Z,10.17
2019-02-20T17:58:44.636Z,10.09
2019-02-20T18:01:27.684Z,9.99
2019-02-20T18:03:50.883Z,9.76
2019-02-20T18:06:14.025Z,9.70
2019-02-20T18:08:37.209Z,9.73
2019-02-20T18:11:01.672Z,9.71
2019-02-20T18:13:43.532Z,9.65
2019-02-20T18:16:05.139Z,9.71
2019-02-20T18:18:28.098Z,9.59
2019-02-20T18:21:09.812Z,9.64
2019-02-20T18:23:31.418Z,9.62
2019-02-20T18:25:54.673Z,9.90
2019-02-20T18:28:24.104Z,9.61
2019-02-20T18:31:01.000Z,9.87
2019-02-20T18:33:24.123Z,9.87
2019-02-20T18:35:47.291Z,9.89
2019-02-20T18:38:08.989Z,9.63
2019-02-20T18:40:32.154Z,9.56
2019-02-20T18:42:53.699Z,9.50
2019-02-20T18:44:55.803Z,9.64
2019-02-20T18:47:38.589Z,9.43
2019-02-20T18:50:02.140Z,9.67
2019-02-20T18:52:18.912Z,9.62
2019-02-20T18:54:40.473Z,9.30
2019-02-20T18:57:02.028Z,9.35
2019-02-20T18:59:23.678Z,9.35
2019-02-20T19:01:46.868Z,9.53
2019-02-20T19:04:10.099Z,9.23
2019-02-20T19:06:33.311Z,9.44
2019-02-20T19:08:56.856Z,9.20
2019-02-20T19:11:59.854Z,9.12
2019-02-20T19:15:02.896Z,9.18
2019-02-20T19:18:04.346Z,9.38
2019-02-20T19:21:05.730Z,9.11
2019-02-20T19:24:07.059Z,9.13
2019-02-20T19:30:40.221Z,9.34
2019-02-20T19:33:41.675Z,9.14
2019-02-20T19:36:25.122Z,9.19
2019-02-20T19:39:28.011Z,8.94
2019-02-20T19:42:29.388Z,9.21
2019-02-20T19:45:12.866Z,8.89
2019-02-20T19:48:15.999Z,9.15
2019-02-20T19:50:36.919Z,9.14
2019-02-20T19:52:56.682Z,9.08
2019-02-20T19:55:58.248Z,9.18
2019-02-20T19:58:41.694Z,8.92
2019-02-20T20:01:44.798Z,8.96
2019-02-20T20:04:28.221Z,8.91
2019-02-20T20:07:13.106Z,8.97
2019-02-20T20:09:58.116Z,8.95
2019-02-20T20:13:01.078Z,9.00
2019-02-20T20:15:44.452Z,8.99
2019-02-20T20:18:47.393Z,8.97
2019-02-20T20:21:49.155Z,8.88
2019-02-20T20:24:52.127Z,8.90
2019-02-20T20:27:35.491Z,9.06
2019-02-20T20:30:20.471Z,8.84
2019-02-20T20:33:05.723Z,8.89
2019-02-20T20:36:08.634Z,9.07
2019-02-20T20:38:52.013Z,8.86
2019-02-20T20:41:36.945Z,8.83
2019-02-20T20:44:27.801Z,8.73
2019-02-20T20:47:25.309Z,8.65
2019-02-20T20:50:03.671Z,8.74
2019-02-20T20:52:46.755Z,8.99
2019-02-20T20:55:47.757Z,8.63
2019-02-20T20:58:30.862Z,8.87
2019-02-20T21:01:13.899Z,8.88
2019-02-20T21:03:56.990Z,8.86
2019-02-20T21:06:40.045Z,8.63
2019-02-20T21:09:23.110Z,8.61
2019-02-20T21:12:24.168Z,8.53
2019-02-20T21:15:07.245Z,8.78
2019-02-20T21:18:08.281Z,8.51
2019-02-20T21:21:09.306Z,8.55
2019-02-20T21:24:10.384Z,8.51
2019-02-20T21:26:53.377Z,8.56
2019-02-20T21:29:36.453Z,8.63
2019-02-20T21:32:39.274Z,8.58
2019-02-20T21:35:40.433Z,8.76
2019-02-20T21:38:23.500Z,8.54
2019-02-20T21:41:06.493Z,8.75
2019-02-20T21:44:07.537Z,8.34
2019-02-20T21:47:08.600Z,8.45
2019-02-20T21:50:09.689Z,8.31
2019-02-20T21:52:52.778Z,8.35
2019-02-20T21:55:53.890Z,8.25
2019-02-20T21:58:36.933Z,7.99
2019-02-20T22:01:37.948Z,8.10
2019-02-20T22:04:39.104Z,8.18
2019-02-20T22:07:22.191Z,8.34
2019-02-20T22:10:05.219Z,7.99
2019-02-20T22:12:50.956Z,7.92
2019-02-20T22:16:11.143Z,7.91
2019-02-20T22:18:31.183Z,7.75
2019-02-20T22:21:14.265Z,7.65
2019-02-20T22:24:15.321Z,7.72
2019-02-20T22:27:16.355Z,7.72
2019-02-20T22:29:59.656Z,7.67
2019-02-20T22:32:42.731Z,7.67
2019-02-20T22:35:43.752Z,7.32
2019-02-20T22:38:44.753Z,7.28
2019-02-20T22:41:27.820Z,7.31
2019-02-20T22:44:11.119Z,7.16
2019-02-20T22:46:54.160Z,7.09
2019-02-20T22:49:10.834Z,7.28
2019-02-20T22:51:53.936Z,7.32
2019-02-20T22:54:36.981Z,7.25
2019-02-20T22:57:20.080Z,7.27
2019-02-20T23:01:00.860Z,7.01
2019-02-20T23:04:02.186Z,7.03
2019-02-20T23:07:03.185Z,7.22
2019-02-20T23:09:46.253Z,7.13
2019-02-20T23:12:29.296Z,7.33
2019-02-20T23:15:10.506Z,7.09
2019-02-20T23:17:31.748Z,7.09
2019-02-20T23:19:53.133Z,7.23
2019-02-20T23:22:14.386Z,7.08
2019-02-20T23:24:35.681Z,7.32
2019-02-20T23:26:56.949Z,7.24
2019-02-20T23:29:18.249Z,7.27
2019-02-20T23:31:39.505Z,7.76
2019-02-20T23:34:00.799Z,7.81
2019-02-20T23:36:22.057Z,7.44
2019-02-20T23:38:43.336Z,7.72
2019-02-20T23:41:04.638Z,7.42
2019-02-20T23:43:25.894Z,7.12
2019-02-20T23:45:47.253Z,7.13
2019-02-20T23:48:08.540Z,6.73
2019-02-20T23:50:23.127Z,7.03
2019-02-20T23:52:44.456Z,6.81
2019-02-20T23:55:05.808Z,7.15
2019-02-20T23:57:27.066Z,7.09
2019-02-20T23:59:48.363Z,7.04
